Time;durP1;ratioP1;P1;durP2;ratioP2;P2;SDS_P1;SDS_P2;PMS_P1;PMS_P2;Temp;Humidity;BMP_temperature;BMP_pressure;BME280_temperature;BME280_humidity;BME280_pressure;Samples;Min_cycle;Max_cycle;Signal;HPM_P1;HPM_P2
2023/04/24 00:00:46;;;;;;;0.00;0.00;;;12.20;99.90;;;;;;5024438;28;20056;-65
2023/04/24 00:03:12;;;;;;;0.10;0.10;;;12.20;99.90;;;;;;5025215;28;20033;-65
2023/04/24 00:05:40;;;;;;;0.00;0.00;;;12.20;99.90;;;;;;5032491;28;20215;-64
2023/04/24 00:08:05;;;;;;;0.15;0.15;;;12.20;99.90;;;;;;5030385;28;20046;-64
2023/04/24 00:10:31;;;;;;;0.10;0.10;;;12.20;99.90;;;;;;5024448;28;20083;-65
2023/04/24 00:12:57;;;;;;;0.20;0.20;;;12.20;99.90;;;;;;5020608;28;20378;-65
2023/04/24 00:15:22;;;;;;;0.10;0.10;;;12.20;99.90;;;;;;5017974;28;20432;-64
2023/04/24 00:17:48;;;;;;;0.32;0.32;;;12.20;99.90;;;;;;5032552;28;20186;-65
2023/04/24 00:20:14;;;;;;;0.10;0.10;;;12.20;99.90;;;;;;5031575;28;20701;-65
2023/04/24 00:22:40;;;;;;;0.08;0.08;;;12.20;99.90;;;;;;5026662;28;20412;-65
2023/04/24 00:25:06;;;;;;;0.47;0.47;;;12.20;99.90;;;;;;5022541;28;20048;-65
2023/04/24 00:27:32;;;;;;;0.00;0.00;;;12.20;99.90;;;;;;5021804;28;20394;-65
2023/04/24 00:29:57;;;;;;;0.08;0.08;;;12.20;99.90;;;;;;5033069;28;20056;-65
2023/04/24 00:32:23;;;;;;;0.10;0.10;;;12.20;99.90;;;;;;5031941;28;20044;-65
2023/04/24 00:34:48;;;;;;;0.10;0.10;;;12.20;99.90;;;;;;5020218;28;20374;-65
2023/04/24 00:37:14;;;;;;;0.10;0.10;;;12.20;99.90;;;;;;5017788;28;20049;-65
2023/04/24 00:39:39;;;;;;;0.00;0.00;;;12.20;99.90;;;;;;5028352;28;20041;-65
2023/04/24 00:42:06;;;;;;;0.10;0.10;;;12.20;99.90;;;;;;5019830;28;20408;-65
2023/04/24 00:44:34;;;;;;;0.00;0.00;;;12.20;99.90;;;;;;5037448;28;20056;-65
2023/04/24 00:47:00;;;;;;;0.03;0.03;;;12.30;99.90;;;;;;5031109;28;20049;-64
2023/04/24 00:49:26;;;;;;;0.03;0.03;;;12.30;99.90;;;;;;5030301;28;20037;-64
2023/04/24 00:51:51;;;;;;;0.20;0.20;;;12.20;99.90;;;;;;5024759;28;20072;-64
2023/04/24 00:54:18;;;;;;;0.10;0.10;;;12.20;99.90;;;;;;5026459;28;20042;-64
2023/04/24 00:56:44;;;;;;;0.20;0.20;;;12.20;99.90;;;;;;5025651;28;20099;-65
2023/04/24 00:59:11;;;;;;;0.43;0.25;;;12.20;99.90;;;;;;5031566;28;20041;-64
2023/04/24 01:01:37;;;;;;;0.00;0.00;;;12.20;99.90;;;;;;5029080;28;20052;-65
2023/04/24 01:04:03;;;;;;;0.00;0.00;;;12.20;99.90;;;;;;5023807;28;20046;-65
2023/04/24 01:06:30;;;;;;;0.40;0.08;;;12.20;99.90;;;;;;5019225;28;20049;-64
2023/04/24 01:08:57;;;;;;;0.00;0.00;;;12.20;99.90;;;;;;5020572;28;20049;-65
2023/04/24 01:11:22;;;;;;;0.20;0.20;;;12.20;99.90;;;;;;5022173;28;20052;-65
2023/04/24 01:13:48;;;;;;;0.05;0.05;;;12.20;99.90;;;;;;5020780;28;20037;-64
2023/04/24 01:16:17;;;;;;;0.10;0.10;;;12.20;99.90;;;;;;5027870;28;20121;-64
2023/04/24 01:18:43;;;;;;;0.30;0.30;;;12.20;99.90;;;;;;5019104;28;20065;-65
2023/04/24 01:21:09;;;;;;;0.17;0.17;;;12.20;99.90;;;;;;5018572;28;20049;-64
2023/04/24 01:23:34;;;;;;;1.55;0.75;;;12.20;99.90;;;;;;5025172;28;20045;-65
2023/04/24 01:26:00;;;;;;;0.00;0.00;;;12.10;99.90;;;;;;5024832;28;20085;-65
2023/04/24 01:28:26;;;;;;;1.95;0.45;;;12.10;99.90;;;;;;5012893;28;20052;-65
2023/04/24 01:30:52;;;;;;;0.00;0.00;;;12.10;99.90;;;;;;5021648;28;20045;-65
2023/04/24 01:33:18;;;;;;;0.00;0.00;;;12.20;99.90;;;;;;5022522;28;20079;-64
2023/04/24 01:35:44;;;;;;;0.20;0.20;;;12.20;99.90;;;;;;5020495;28;20152;-64
2023/04/24 01:38:10;;;;;;;0.10;0.10;;;12.10;99.90;;;;;;5013855;28;20050;-64
2023/04/24 01:40:35;;;;;;;0.30;0.30;;;12.20;99.90;;;;;;5020612;28;20061;-64
2023/04/24 01:43:01;;;;;;;0.10;0.10;;;12.20;99.90;;;;;;5029096;28;20041;-64
2023/04/24 01:45:27;;;;;;;0.25;0.20;;;12.20;99.90;;;;;;5029983;28;20061;-64
2023/04/24 01:47:53;;;;;;;0.50;0.50;;;12.20;99.90;;;;;;5031426;28;20075;-64
2023/04/24 01:50:18;;;;;;;0.20;0.20;;;12.10;99.90;;;;;;5018879;28;20053;-64
2023/04/24 01:52:44;;;;;;;0.00;0.00;;;12.10;99.90;;;;;;5020311;28;20049;-64
2023/04/24 01:55:10;;;;;;;0.00;0.00;;;12.10;99.90;;;;;;5023562;28;21105;-64
2023/04/24 01:57:36;;;;;;;0.00;0.00;;;12.10;99.90;;;;;;5017929;28;20095;-64
2023/04/24 02:00:04;;;;;;;0.52;0.32;;;12.10;99.90;;;;;;5016747;28;20042;-64
2023/04/24 02:02:30;;;;;;;0.10;0.10;;;12.10;99.90;;;;;;5031263;28;20049;-64
2023/04/24 02:04:56;;;;;;;0.10;0.10;;;12.10;99.90;;;;;;5020728;28;20049;-64
2023/04/24 02:07:21;;;;;;;1.30;0.80;;;12.10;99.90;;;;;;5024759;28;20432;-64
2023/04/24 02:09:47;;;;;;;0.10;0.10;;;12.10;99.90;;;;;;5025694;28;20099;-64
2023/04/24 02:12:13;;;;;;;0.10;0.10;;;12.00;99.90;;;;;;5011224;28;20049;-64
2023/04/24 02:14:39;;;;;;;0.10;0.10;;;12.00;99.90;;;;;;5017955;28;20071;-64
2023/04/24 02:17:05;;;;;;;0.10;0.10;;;12.00;99.90;;;;;;5031536;28;20484;-64
2023/04/24 02:19:30;;;;;;;0.22;0.22;;;12.00;99.90;;;;;;5026682;28;20054;-64
2023/04/24 02:21:56;;;;;;;0.00;0.00;;;12.00;99.90;;;;;;5045774;28;20038;-64
2023/04/24 02:24:21;;;;;;;0.20;0.20;;;12.00;99.90;;;;;;5028813;28;20128;-64
2023/04/24 02:26:47;;;;;;;0.05;0.05;;;12.00;99.90;;;;;;5037300;28;20413;-64
2023/04/24 02:29:13;;;;;;;0.10;0.10;;;11.80;99.90;;;;;;5019539;28;20119;-64
2023/04/24 02:31:38;;;;;;;0.32;0.32;;;11.80;99.90;;;;;;5023116;28;20046;-64
2023/04/24 02:34:04;;;;;;;0.00;0.00;;;11.70;99.90;;;;;;5028596;28;20037;-64
2023/04/24 02:36:30;;;;;;;0.35;0.35;;;11.70;99.90;;;;;;5026509;28;20496;-64
2023/04/24 02:38:55;;;;;;;0.08;0.08;;;11.60;99.90;;;;;;5022230;28;20046;-64
2023/04/24 02:41:21;;;;;;;0.00;0.00;;;11.60;99.90;;;;;;5027835;28;20068;-64
2023/04/24 02:43:46;;;;;;;0.60;0.60;;;11.60;99.90;;;;;;5029068;28;20049;-64
2023/04/24 02:46:12;;;;;;;0.20;0.20;;;11.50;99.90;;;;;;5029702;28;20099;-64
2023/04/24 02:48:38;;;;;;;0.00;0.00;;;11.50;99.90;;;;;;5025440;28;20037;-64
2023/04/24 02:51:04;;;;;;;0.20;0.20;;;11.50;99.90;;;;;;5017498;28;20058;-64
2023/04/24 02:53:30;;;;;;;0.10;0.10;;;11.40;99.90;;;;;;5025946;28;20054;-64
2023/04/24 02:55:56;;;;;;;0.10;0.10;;;11.50;99.90;;;;;;5031259;28;20128;-66
2023/04/24 02:58:22;;;;;;;0.00;0.00;;;11.50;99.90;;;;;;5020688;28;20116;-65
2023/04/24 03:00:47;;;;;;;0.00;0.00;;;11.40;99.90;;;;;;5016621;28;20037;-63
2023/04/24 03:03:14;;;;;;;0.03;0.03;;;11.40;99.90;;;;;;5016652;28;20061;-63
2023/04/24 03:05:40;;;;;;;0.10;0.10;;;11.40;99.90;;;;;;5021405;28;20045;-63
2023/04/24 03:08:06;;;;;;;0.75;0.75;;;11.40;99.90;;;;;;5021810;28;20057;-63
2023/04/24 03:10:32;;;;;;;0.00;0.00;;;11.40;99.90;;;;;;5020067;28;20046;-63
2023/04/24 03:12:57;;;;;;;0.00;0.00;;;11.40;99.90;;;;;;5021091;28;20038;-63
2023/04/24 03:15:23;;;;;;;0.08;0.08;;;11.40;99.90;;;;;;5028844;28;20063;-63
2023/04/24 03:17:48;;;;;;;0.90;0.90;;;11.40;99.90;;;;;;5016790;28;20055;-63
2023/04/24 03:20:15;;;;;;;0.10;0.10;;;11.40;99.90;;;;;;5023530;28;20053;-63
2023/04/24 03:22:41;;;;;;;0.00;0.00;;;11.40;99.90;;;;;;5020068;28;20417;-63
2023/04/24 03:25:09;;;;;;;0.10;0.10;;;11.30;99.90;;;;;;5026307;28;20050;-63
2023/04/24 03:27:34;;;;;;;0.00;0.00;;;11.40;99.90;;;;;;5016593;28;20100;-63
2023/04/24 03:30:00;;;;;;;0.05;0.05;;;11.30;99.90;;;;;;5021515;28;20497;-63
2023/04/24 03:32:26;;;;;;;0.00;0.00;;;11.40;99.90;;;;;;5026677;28;20049;-63
2023/04/24 03:34:51;;;;;;;0.00;0.00;;;11.30;99.90;;;;;;5028067;28;20053;-63
2023/04/24 03:37:17;;;;;;;0.85;0.52;;;11.40;99.90;;;;;;5016612;28;20053;-62
2023/04/24 03:39:43;;;;;;;0.00;0.00;;;11.40;99.90;;;;;;5018020;28;20842;-63
2023/04/24 03:42:08;;;;;;;0.10;0.10;;;11.30;99.90;;;;;;5027378;28;20046;-62
2023/04/24 03:44:35;;;;;;;0.05;0.05;;;11.20;99.90;;;;;;5023199;28;20107;-63
2023/04/24 03:47:01;;;;;;;0.00;0.00;;;11.30;99.90;;;;;;5019212;28;20050;-62
2023/04/24 03:49:26;;;;;;;0.00;0.00;;;11.20;99.90;;;;;;5028386;28;20044;-65
2023/04/24 03:51:52;;;;;;;0.10;0.10;;;11.20;99.90;;;;;;5012771;28;20057;-65
2023/04/24 03:54:19;;;;;;;0.17;0.17;;;11.10;99.90;;;;;;5030154;28;20053;-65
2023/04/24 03:56:44;;;;;;;0.00;0.00;;;11.10;99.90;;;;;;5022712;28;20049;-65
2023/04/24 03:59:10;;;;;;;0.00;0.00;;;11.10;99.90;;;;;;5018647;28;20371;-65
2023/04/24 04:01:37;;;;;;;0.10;0.10;;;11.10;99.90;;;;;;5015200;28;20077;-65
2023/04/24 04:04:03;;;;;;;0.10;0.10;;;11.10;99.90;;;;;;5020396;28;20083;-65
2023/04/24 04:06:30;;;;;;;0.10;0.10;;;11.00;99.90;;;;;;5014936;28;20045;-65
2023/04/24 04:08:56;;;;;;;0.05;0.05;;;11.10;99.90;;;;;;5017875;28;20128;-65
2023/04/24 04:11:22;;;;;;;1.02;0.80;;;11.00;99.90;;;;;;5027629;28;20132;-65
2023/04/24 04:13:47;;;;;;;0.00;0.00;;;11.00;99.90;;;;;;5026623;28;20056;-65
2023/04/24 04:16:14;;;;;;;0.10;0.10;;;11.00;99.90;;;;;;5015891;28;20088;-65
2023/04/24 04:18:39;;;;;;;0.20;0.20;;;11.10;99.90;;;;;;5028466;28;20052;-65
2023/04/24 04:21:05;;;;;;;0.20;0.20;;;11.00;99.90;;;;;;5019440;28;20057;-65
2023/04/24 04:23:31;;;;;;;0.10;0.10;;;10.90;99.90;;;;;;5020053;28;20129;-63
2023/04/24 04:25:57;;;;;;;0.00;0.00;;;10.90;99.90;;;;;;5020692;28;20085;-63
2023/04/24 04:28:24;;;;;;;0.70;0.70;;;10.90;99.90;;;;;;5020627;28;20077;-63
2023/04/24 04:30:53;;;;;;;0.10;0.10;;;10.90;99.90;;;;;;5020391;28;20428;-62
2023/04/24 04:33:21;;;;;;;0.35;0.35;;;10.90;99.90;;;;;;5017802;28;20042;-63
2023/04/24 04:35:51;;;;;;;0.10;0.10;;;10.90;99.90;;;;;;5021825;28;20042;-62
2023/04/24 04:38:19;;;;;;;0.10;0.10;;;10.90;99.90;;;;;;5029246;28;20057;-62
2023/04/24 04:40:45;;;;;;;0.00;0.00;;;10.90;99.90;;;;;;5027445;28;20476;-62
2023/04/24 04:43:11;;;;;;;0.10;0.10;;;10.90;99.90;;;;;;5021818;28;20060;-62
2023/04/24 04:45:38;;;;;;;0.05;0.05;;;10.90;99.90;;;;;;5025573;28;20049;-62
2023/04/24 04:48:05;;;;;;;0.10;0.10;;;10.80;99.90;;;;;;5029029;28;20037;-62
2023/04/24 04:50:31;;;;;;;0.10;0.10;;;10.80;99.90;;;;;;5029777;28;20060;-62
2023/04/24 04:52:56;;;;;;;0.35;0.30;;;10.80;99.90;;;;;;5027892;28;20069;-62
2023/04/24 04:55:22;;;;;;;0.10;0.10;;;10.80;99.90;;;;;;5018455;28;20080;-62
2023/04/24 04:57:48;;;;;;;0.08;0.08;;;10.90;99.90;;;;;;5030977;28;20042;-62
2023/04/24 05:00:13;;;;;;;0.00;0.00;;;10.80;99.90;;;;;;5022569;28;20531;-62
2023/04/24 05:02:40;;;;;;;0.40;0.40;;;10.80;99.90;;;;;;5028563;28;20494;-62
2023/04/24 05:05:07;;;;;;;0.28;0.28;;;10.80;99.90;;;;;;5027826;28;20069;-62
2023/04/24 05:07:32;;;;;;;0.35;0.35;;;10.90;99.90;;;;;;5023183;28;20048;-62
2023/04/24 05:09:58;;;;;;;3.40;0.50;;;10.90;99.90;;;;;;5025122;28;20038;-62
2023/04/24 05:12:23;;;;;;;0.25;0.25;;;10.80;99.90;;;;;;5032709;28;20049;-62
2023/04/24 05:14:49;;;;;;;0.57;0.30;;;10.80;99.90;;;;;;5026132;28;20038;-62
2023/04/24 05:17:15;;;;;;;0.20;0.20;;;10.90;99.90;;;;;;5027486;28;20452;-62
2023/04/24 05:19:41;;;;;;;0.10;0.10;;;10.90;99.90;;;;;;5032913;28;20067;-63
2023/04/24 05:22:06;;;;;;;0.20;0.20;;;10.80;99.90;;;;;;5019280;28;20042;-62
2023/04/24 05:24:36;;;;;;;0.20;0.20;;;10.80;99.90;;;;;;5025992;28;20041;-62
2023/04/24 05:27:04;;;;;;;0.08;0.08;;;10.80;99.90;;;;;;5015459;28;20072;-62
2023/04/24 05:29:33;;;;;;;0.10;0.10;;;10.70;99.90;;;;;;5024897;28;20099;-62
2023/04/24 05:31:59;;;;;;;0.10;0.10;;;10.70;99.90;;;;;;5026437;28;20063;-62
2023/04/24 05:34:25;;;;;;;0.10;0.10;;;10.70;99.90;;;;;;5020038;28;20041;-62
2023/04/24 05:36:51;;;;;;;0.98;0.90;;;10.80;99.90;;;;;;5046127;28;20108;-62
2023/04/24 05:39:17;;;;;;;0.10;0.10;;;10.80;99.90;;;;;;5019444;28;20042;-62
2023/04/24 05:41:43;;;;;;;0.10;0.10;;;10.80;99.90;;;;;;5028324;28;20477;-62
2023/04/24 05:44:09;;;;;;;1.17;0.85;;;10.80;99.90;;;;;;5024377;28;20084;-62
2023/04/24 05:46:35;;;;;;;0.00;0.00;;;10.80;99.90;;;;;;5027944;28;20069;-62
2023/04/24 05:49:00;;;;;;;0.00;0.00;;;10.80;99.90;;;;;;5031731;28;20049;-62
2023/04/24 05:51:26;;;;;;;0.00;0.00;;;10.80;99.90;;;;;;5018236;28;20497;-63
2023/04/24 05:53:52;;;;;;;0.00;0.00;;;10.80;99.90;;;;;;5021326;28;20505;-63
2023/04/24 05:56:18;;;;;;;0.10;0.10;;;10.70;99.90;;;;;;5024126;28;20046;-62
2023/04/24 05:58:45;;;;;;;0.10;0.10;;;10.70;99.90;;;;;;5031281;28;20030;-62
2023/04/24 06:01:10;;;;;;;0.10;0.10;;;10.70;99.90;;;;;;5016756;28;20121;-62
2023/04/24 06:03:37;;;;;;;0.10;0.10;;;10.70;99.90;;;;;;5021296;28;20421;-62
2023/04/24 06:06:03;;;;;;;1.65;0.52;;;10.70;99.90;;;;;;5020802;28;20129;-62
2023/04/24 06:08:28;;;;;;;0.17;0.17;;;10.70;99.90;;;;;;5023439;28;20042;-62
2023/04/24 06:10:54;;;;;;;0.00;0.00;;;10.70;99.90;;;;;;5025116;28;20081;-62
2023/04/24 06:13:20;;;;;;;0.10;0.10;;;10.60;99.90;;;;;;5023731;28;20147;-62
2023/04/24 06:15:45;;;;;;;0.20;0.20;;;10.70;99.90;;;;;;5018292;28;20072;-62
2023/04/24 06:18:12;;;;;;;0.10;0.10;;;10.60;99.90;;;;;;5026244;28;20457;-62
2023/04/24 06:20:38;;;;;;;0.10;0.10;;;10.60;99.90;;;;;;5013556;28;20073;-62
2023/04/24 06:23:03;;;;;;;0.05;0.05;;;10.60;99.90;;;;;;5018500;28;20561;-62
2023/04/24 06:25:29;;;;;;;0.00;0.00;;;10.60;99.90;;;;;;5023418;28;20053;-62
2023/04/24 06:27:56;;;;;;;0.10;0.10;;;10.60;99.90;;;;;;5022420;28;20042;-62
2023/04/24 06:30:22;;;;;;;0.52;0.45;;;10.60;99.90;;;;;;5025101;28;20754;-63
2023/04/24 06:32:47;;;;;;;0.08;0.08;;;10.50;99.90;;;;;;5023884;28;20045;-62
2023/04/24 06:35:13;;;;;;;0.10;0.10;;;10.50;99.90;;;;;;5017010;28;20077;-62
2023/04/24 06:37:42;;;;;;;1.35;0.82;;;10.50;99.90;;;;;;5022121;28;20482;-62
2023/04/24 06:40:09;;;;;;;0.52;0.52;;;10.50;99.90;;;;;;5033123;28;20045;-62
2023/04/24 06:42:35;;;;;;;0.10;0.10;;;10.30;99.90;;;;;;5026345;28;20044;-62
2023/04/24 06:45:01;;;;;;;0.38;0.38;;;10.30;99.90;;;;;;5030409;28;20094;-62
2023/04/24 06:47:27;;;;;;;0.10;0.10;;;10.30;99.90;;;;;;5023012;28;20033;-62
2023/04/24 06:49:53;;;;;;;0.63;0.63;;;10.30;99.90;;;;;;5019224;28;20046;-61
2023/04/24 06:52:19;;;;;;;0.22;0.22;;;10.30;99.90;;;;;;5028321;28;20588;-62
2023/04/24 06:54:45;;;;;;;0.30;0.30;;;10.20;99.90;;;;;;5020605;28;20049;-62
2023/04/24 06:57:11;;;;;;;0.00;0.00;;;10.20;99.90;;;;;;5017888;28;20053;-62
2023/04/24 06:59:37;;;;;;;0.43;0.43;;;10.20;99.90;;;;;;5029527;28;20049;-62
2023/04/24 07:02:02;;;;;;;0.52;0.52;;;10.20;99.90;;;;;;5018899;28;20560;-62
2023/04/24 07:04:28;;;;;;;0.10;0.10;;;10.20;99.90;;;;;;5024029;28;20167;-62
2023/04/24 07:06:55;;;;;;;2.17;1.38;;;10.20;99.90;;;;;;5022055;28;20121;-62
2023/04/24 07:09:23;;;;;;;0.25;0.25;;;10.30;99.90;;;;;;5020259;28;20443;-62
2023/04/24 07:11:49;;;;;;;0.70;0.70;;;10.10;99.90;;;;;;5016481;28;20080;-61
2023/04/24 07:14:15;;;;;;;0.10;0.10;;;10.10;99.90;;;;;;5020388;28;20045;-61
2023/04/24 07:16:42;;;;;;;1.05;1.02;;;10.20;99.90;;;;;;5021390;28;20048;-62
2023/04/24 07:19:08;;;;;;;0.30;0.30;;;10.10;99.90;;;;;;5019204;28;20098;-62
2023/04/24 07:21:34;;;;;;;0.43;0.43;;;10.10;99.90;;;;;;5020052;28;20045;-62
2023/04/24 07:23:59;;;;;;;0.40;0.40;;;10.10;99.90;;;;;;5020781;28;20053;-62
2023/04/24 07:26:27;;;;;;;0.25;0.25;;;10.10;99.90;;;;;;5016571;28;20650;-61
2023/04/24 07:28:53;;;;;;;0.28;0.28;;;10.10;99.90;;;;;;5017793;28;20049;-62
2023/04/24 07:31:18;;;;;;;0.10;0.10;;;10.10;99.90;;;;;;5025297;28;20400;-61
2023/04/24 07:33:44;;;;;;;0.20;0.20;;;10.00;99.90;;;;;;5022647;28;20617;-61
2023/04/24 07:36:15;;;;;;;0.35;0.35;;;10.00;99.90;;;;;;5018595;28;20045;-62
2023/04/24 07:38:41;;;;;;;0.00;0.00;;;10.00;99.90;;;;;;5011501;28;20092;-62
2023/04/24 07:41:07;;;;;;;0.52;0.52;;;10.00;99.90;;;;;;4996873;28;20049;-62
2023/04/24 07:43:33;;;;;;;0.08;0.08;;;10.00;99.90;;;;;;5017731;28;20057;-62
2023/04/24 07:45:59;;;;;;;0.20;0.20;;;10.00;99.90;;;;;;5022726;28;20053;-62
2023/04/24 07:48:26;;;;;;;0.20;0.20;;;10.10;99.90;;;;;;5020146;28;20038;-62
2023/04/24 07:50:52;;;;;;;2.25;0.90;;;10.10;99.90;;;;;;5014783;28;20525;-61
2023/04/24 07:53:17;;;;;;;0.45;0.45;;;10.10;99.90;;;;;;5023925;28;20057;-62
2023/04/24 07:55:43;;;;;;;0.10;0.10;;;10.20;99.90;;;;;;5029341;28;20037;-62
2023/04/24 07:58:09;;;;;;;1.05;1.05;;;10.20;99.90;;;;;;5028644;28;20094;-62
2023/04/24 08:00:34;;;;;;;1.75;1.65;;;10.20;99.90;;;;;;5021074;28;20073;-62
2023/04/24 08:03:00;;;;;;;0.30;0.30;;;10.30;99.90;;;;;;5023505;28;20493;-62
2023/04/24 08:05:27;;;;;;;0.10;0.10;;;10.20;99.90;;;;;;5026987;28;20168;-62
2023/04/24 08:07:53;;;;;;;0.10;0.10;;;10.30;99.90;;;;;;5013836;28;20137;-62
2023/04/24 08:10:18;;;;;;;0.00;0.00;;;10.40;99.90;;;;;;5018564;28;20128;-62
2023/04/24 08:12:44;;;;;;;0.20;0.20;;;10.50;99.90;;;;;;5015017;28;20045;-62
2023/04/24 08:15:10;;;;;;;2.20;1.17;;;10.40;99.90;;;;;;5021420;28;20390;-61
2023/04/24 08:17:36;;;;;;;0.00;0.00;;;10.60;99.90;;;;;;5020329;28;20508;-62
2023/04/24 08:20:04;;;;;;;0.30;0.30;;;10.50;99.90;;;;;;5024883;28;20068;-62
2023/04/24 08:22:30;;;;;;;0.68;0.68;;;10.40;99.90;;;;;;5020323;28;20037;-62
2023/04/24 08:24:56;;;;;;;0.30;0.30;;;10.40;99.90;;;;;;5023493;28;20117;-62
2023/04/24 08:27:23;;;;;;;0.55;0.55;;;10.40;99.90;;;;;;5020081;28;20077;-61
2023/04/24 08:29:49;;;;;;;0.52;0.52;;;10.40;99.90;;;;;;5017311;28;20042;-61
2023/04/24 08:32:15;;;;;;;0.10;0.10;;;10.40;99.90;;;;;;5014015;28;20042;-61
2023/04/24 08:34:40;;;;;;;0.10;0.10;;;10.40;99.90;;;;;;5045260;28;20390;-62
2023/04/24 08:37:06;;;;;;;3.13;1.52;;;10.50;99.90;;;;;;5014287;28;20053;-61
2023/04/24 08:39:31;;;;;;;0.35;0.32;;;10.40;99.90;;;;;;5020958;28;20116;-62
2023/04/24 08:42:05;;;;;;;0.00;0.00;;;10.50;99.90;;;;;;5029860;28;20046;-62
2023/04/24 08:44:32;;;;;;;0.32;0.32;;;10.60;99.90;;;;;;5017208;28;20050;-62
2023/04/24 08:46:58;;;;;;;0.05;0.05;;;10.70;99.90;;;;;;5019680;28;20433;-62
2023/04/24 08:49:25;;;;;;;0.30;0.30;;;10.70;99.90;;;;;;5019920;28;20037;-62
2023/04/24 08:51:52;;;;;;;0.38;0.38;;;10.80;99.90;;;;;;5024734;28;20053;-62
2023/04/24 08:54:18;;;;;;;0.10;0.10;;;10.90;99.90;;;;;;5026957;28;20050;-62
2023/04/24 08:56:45;;;;;;;0.17;0.17;;;11.00;99.90;;;;;;5026526;28;20465;-62
2023/04/24 08:59:11;;;;;;;0.20;0.20;;;11.00;99.90;;;;;;5013847;28;20090;-61
2023/04/24 09:01:39;;;;;;;2.40;1.05;;;11.00;99.90;;;;;;5027529;28;20653;-62
2023/04/24 09:04:09;;;;;;;0.00;0.00;;;11.00;99.90;;;;;;5029219;28;20054;-61
2023/04/24 09:06:35;;;;;;;2.38;0.63;;;11.10;99.90;;;;;;5018680;28;20045;-61
2023/04/24 09:09:03;;;;;;;0.10;0.10;;;11.20;99.90;;;;;;5017425;28;20121;-62
2023/04/24 09:11:30;;;;;;;0.10;0.10;;;11.60;99.90;;;;;;5018909;28;20044;-62
2023/04/24 09:13:56;;;;;;;3.75;1.75;;;11.90;99.90;;;;;;5018405;28;20386;-62
2023/04/24 09:16:24;;;;;;;0.05;0.05;;;12.10;99.90;;;;;;5018343;28;20173;-62
2023/04/24 09:18:50;;;;;;;0.32;0.32;;;11.90;99.90;;;;;;5026676;28;20803;-62
2023/04/24 09:21:15;;;;;;;3.83;1.52;;;11.70;99.90;;;;;;5013808;28;20053;-62
2023/04/24 09:23:41;;;;;;;0.08;0.08;;;11.60;99.90;;;;;;5023299;28;20041;-61
2023/04/24 09:26:09;;;;;;;0.40;0.40;;;11.50;99.90;;;;;;5025727;28;20073;-62
2023/04/24 09:28:37;;;;;;;0.10;0.10;;;11.50;99.90;;;;;;5026900;28;20408;-61
2023/04/24 09:31:15;;;;;;;0.10;0.10;;;11.40;99.90;;;;;;5023722;28;20041;-61
2023/04/24 09:34:05;;;;;;;0.10;0.10;;;11.40;99.90;;;;;;5028820;28;20543;-61
2023/04/24 09:36:33;;;;;;;0.00;0.00;;;11.40;99.90;;;;;;5021850;28;20297;-62
2023/04/24 09:39:04;;;;;;;0.75;0.75;;;11.30;99.90;;;;;;5023542;28;20044;-61
2023/04/24 09:41:31;;;;;;;0.10;0.10;;;11.30;99.90;;;;;;5018656;28;20042;-62
2023/04/24 09:44:01;;;;;;;0.20;0.20;;;11.30;99.90;;;;;;5018044;28;20041;-61
2023/04/24 09:46:33;;;;;;;0.10;0.10;;;11.20;99.90;;;;;;5014686;28;20046;-62
2023/04/24 09:49:21;;;;;;;0.15;0.15;;;11.30;99.90;;;;;;5025120;28;20892;-62
2023/04/24 09:51:47;;;;;;;0.40;0.40;;;11.30;99.90;;;;;;5025701;28;20468;-62
2023/04/24 09:54:18;;;;;;;0.20;0.20;;;11.30;99.90;;;;;;5023117;28;20064;-62
2023/04/24 09:56:54;;;;;;;0.75;0.75;;;11.20;99.90;;;;;;5025586;28;20053;-62
2023/04/24 09:59:20;;;;;;;0.10;0.10;;;11.20;99.90;;;;;;5021101;28;20064;-62
2023/04/24 10:01:48;;;;;;;0.10;0.10;;;11.30;99.90;;;;;;5026295;28;20077;-62
2023/04/24 10:04:23;;;;;;;0.20;0.20;;;11.30;99.90;;;;;;5025438;28;20041;-62
2023/04/24 10:06:50;;;;;;;0.10;0.10;;;11.30;99.90;;;;;;5024568;28;20140;-62
2023/04/24 10:09:17;;;;;;;0.10;0.10;;;11.30;99.90;;;;;;5026899;28;20038;-62
2023/04/24 10:11:45;;;;;;;0.10;0.10;;;11.40;99.90;;;;;;5025324;28;20030;-62
2023/04/24 10:14:25;;;;;;;0.00;0.00;;;11.50;99.90;;;;;;5022767;28;20528;-62
2023/04/24 10:16:54;;;;;;;0.00;0.00;;;11.60;99.90;;;;;;5026988;28;20140;-62
2023/04/24 10:19:20;;;;;;;0.10;0.10;;;11.70;99.90;;;;;;5015644;28;20497;-62
2023/04/24 10:21:46;;;;;;;0.10;0.10;;;11.60;99.90;;;;;;5027406;28;20037;-62
2023/04/24 10:24:17;;;;;;;0.10;0.10;;;11.60;99.90;;;;;;5018110;28;20512;-62
2023/04/24 10:26:44;;;;;;;0.57;0.57;;;11.60;99.90;;;;;;5016040;28;20074;-62
2023/04/24 10:29:12;;;;;;;0.10;0.10;;;11.50;99.90;;;;;;5019350;28;20053;-63
2023/04/24 10:31:38;;;;;;;2.17;1.33;;;11.40;99.90;;;;;;5016355;28;20103;-65
2023/04/24 10:34:09;;;;;;;0.10;0.10;;;11.60;99.90;;;;;;5019393;28;20042;-65
2023/04/24 10:36:37;;;;;;;0.05;0.05;;;11.60;99.90;;;;;;5020617;28;20444;-65
2023/04/24 10:39:06;;;;;;;0.00;0.00;;;11.70;99.90;;;;;;5024125;28;20060;-64
2023/04/24 10:41:32;;;;;;;0.10;0.10;;;11.60;99.90;;;;;;5015730;28;20038;-64
2023/04/24 10:44:08;;;;;;;0.00;0.00;;;11.50;99.90;;;;;;5025631;28;20046;-64
2023/04/24 10:46:34;;;;;;;0.00;0.00;;;11.40;99.90;;;;;;5025644;28;20138;-64
2023/04/24 10:49:06;;;;;;;0.10;0.10;;;11.50;99.90;;;;;;5015951;28;20088;-64
2023/04/24 10:52:02;;;;;;;0.10;0.10;;;11.40;99.90;;;;;;5025011;28;20045;-65
2023/04/24 10:54:41;;;;;;;0.00;0.00;;;11.20;99.90;;;;;;5015211;28;20056;-64
2023/04/24 10:57:21;;;;;;;0.00;0.00;;;11.00;99.90;;;;;;5028483;28;20049;-64
2023/04/24 10:59:49;;;;;;;0.10;0.10;;;11.00;99.90;;;;;;5028496;28;20132;-64
2023/04/24 11:02:15;;;;;;;0.00;0.00;;;11.00;99.90;;;;;;5019100;28;20058;-64
2023/04/24 11:04:42;;;;;;;0.10;0.10;;;10.90;99.90;;;;;;5029720;28;20041;-64
2023/04/24 11:07:09;;;;;;;0.10;0.10;;;10.80;99.90;;;;;;5044868;28;20073;-64
2023/04/24 11:09:36;;;;;;;0.00;0.00;;;10.90;99.90;;;;;;5025269;28;20053;-65
2023/04/24 11:12:10;;;;;;;0.60;0.60;;;10.80;99.90;;;;;;5028983;28;20041;-65
2023/04/24 11:14:54;;;;;;;0.10;0.10;;;10.70;99.90;;;;;;5017952;28;20433;-64
2023/04/24 11:17:36;;;;;;;2.92;1.35;;;10.60;99.90;;;;;;5020828;28;20485;-64
2023/04/24 11:20:09;;;;;;;0.10;0.10;;;10.60;99.90;;;;;;5025715;28;20401;-64
2023/04/24 11:22:36;;;;;;;0.00;0.00;;;10.70;99.90;;;;;;5019903;28;20448;-64
2023/04/24 11:25:05;;;;;;;1.38;0.75;;;10.70;99.90;;;;;;5022439;28;20084;-64
2023/04/24 11:27:41;;;;;;;0.30;0.30;;;10.90;99.90;;;;;;5017762;28;20092;-64
2023/04/24 11:30:08;;;;;;;0.10;0.10;;;11.10;99.90;;;;;;5020228;28;20041;-64
2023/04/24 11:32:33;;;;;;;0.10;0.10;;;11.10;99.90;;;;;;5019847;28;20045;-64
2023/04/24 11:35:08;;;;;;;0.00;0.00;;;11.00;99.90;;;;;;5021182;28;20107;-64
2023/04/24 11:37:42;;;;;;;0.10;0.10;;;10.90;99.90;;;;;;5043421;28;20052;-64
2023/04/24 11:40:10;;;;;;;13.82;1.10;;;10.90;99.90;;;;;;5026140;28;20041;-64
2023/04/24 11:42:43;;;;;;;0.03;0.03;;;11.00;99.90;;;;;;5029471;28;20060;-65
2023/04/24 11:45:10;;;;;;;;;;;11.00;99.90;;;;;;5023883;28;20077;-65
2023/04/24 11:47:37;;;;;;;0.47;0.47;;;11.10;99.90;;;;;;5018424;28;19932;-64
2023/04/24 11:50:04;;;;;;;0.52;0.52;;;11.30;99.90;;;;;;5018981;28;20125;-63
2023/04/24 11:52:30;;;;;;;0.10;0.10;;;11.30;99.90;;;;;;5021983;28;20124;-63
2023/04/24 11:54:56;;;;;;;0.05;0.05;;;11.40;99.90;;;;;;5026296;28;20589;-62
2023/04/24 11:57:26;;;;;;;0.10;0.10;;;11.60;99.90;;;;;;5024940;28;20053;-62
2023/04/24 11:59:51;;;;;;;13.48;1.20;;;11.70;99.90;;;;;;5023467;28;20049;-63
2023/04/24 12:02:21;;;;;;;0.10;0.10;;;12.00;99.90;;;;;;5025108;28;20042;-63
2023/04/24 12:04:47;;;;;;;0.10;0.10;;;12.10;99.90;;;;;;5015181;28;20173;-62
2023/04/24 12:07:12;;;;;;;0.03;0.03;;;12.20;99.90;;;;;;5018856;28;20076;-63
2023/04/24 12:09:43;;;;;;;0.03;0.03;;;12.30;99.90;;;;;;5017805;28;20362;-62
2023/04/24 12:12:08;;;;;;;0.00;0.00;;;12.20;99.90;;;;;;5024963;28;20045;-63
2023/04/24 12:14:47;;;;;;;0.08;0.08;;;12.40;99.90;;;;;;5024928;28;20574;-63
2023/04/24 12:17:12;;;;;;;0.15;0.15;;;12.50;99.90;;;;;;5020584;28;20041;-63
2023/04/24 12:19:44;;;;;;;0.28;0.28;;;12.60;99.90;;;;;;5009636;28;20488;-65
2023/04/24 12:22:09;;;;;;;0.43;0.30;;;12.40;99.90;;;;;;5016891;28;20049;-65
2023/04/24 12:24:35;;;;;;;0.10;0.10;;;12.30;99.90;;;;;;5024534;28;20061;-64
2023/04/24 12:27:01;;;;;;;0.10;0.10;;;12.40;99.90;;;;;;5016799;28;20041;-63
2023/04/24 12:29:26;;;;;;;0.10;0.10;;;12.30;99.90;;;;;;5019532;28;20129;-64
2023/04/24 12:31:52;;;;;;;0.10;0.10;;;12.10;99.90;;;;;;5027058;28;20053;-64
2023/04/24 12:34:22;;;;;;;0.00;0.00;;;12.10;99.90;;;;;;5022486;28;20042;-64
2023/04/24 12:36:48;;;;;;;0.10;0.10;;;11.90;99.90;;;;;;5014906;28;20489;-63
2023/04/24 12:39:19;;;;;;;0.10;0.10;;;11.90;99.90;;;;;;5021390;28;20041;-65
2023/04/24 12:41:57;;;;;;;0.10;0.10;;;11.90;99.90;;;;;;5027089;28;20037;-64
2023/04/24 12:44:34;;;;;;;0.10;0.10;;;11.80;99.90;;;;;;5011938;28;20045;-65
2023/04/24 12:47:00;;;;;;;0.00;0.00;;;11.90;99.90;;;;;;5015121;28;20052;-65